31NY weather

Troop E Heliport
Canandaigua, New York, United States

Public forecast

Using degrees Fahrenheit for public forecast. Weather courtesy of forecast.io.

Closest aviation weather report (METAR) to Troop E Heliport

Closest report is Greater Rochester International Airport, 17.6 nm (32.6 km) WNW. Retrieved 2019/10/18 08:54 UTC (59 minutes ago):

KROC 180854Z 31008G16KT 10SM OVC026 07/03 A2986 RMK AO2 SLP117 T00720028 51019

Closest aviation forecast (TAF) to Troop E Heliport

Closest forecast is Greater Rochester International Airport, 17.6 nm (32.6 km) WNW. Retrieved 2019/10/18 06:39 UTC (3 hours ago):

TAF KROC 180536Z 1806/1906 31012KT P6SM VCSH OVC020 FM180900 30013G19KT P6SM OVC025 FM181300 30013G19KT P6SM BKN025 FM182100 29009KT P6SM BKN035 FM182300 29007KT P6SM SCT035 FM190500 27004KT P6SM SCT025